Time;durP1;ratioP1;P1;durP2;ratioP2;P2;SDS_P1;SDS_P2;PMS_P1;PMS_P2;Temp;Humidity;BMP_temperature;BMP_pressure;BME280_temperature;BME280_humidity;BME280_pressure;Samples;Min_cycle;Max_cycle;Signal;HPM_P1;HPM_P2
2022/05/19 00:00:25;;;;;;;1.85;1.40;;;;;;;20.16;88.28;101675.97;6200502;28;20058;-74
2022/05/19 00:03:26;;;;;;;1.60;1.33;;;;;;;20.15;88.15;101670.75;6201930;28;20399;-73
2022/05/19 00:06:28;;;;;;;1.67;1.40;;;;;;;20.12;88.49;101665.66;6184444;28;20043;-73
2022/05/19 00:09:30;;;;;;;2.63;1.45;;;;;;;20.09;88.51;101669.44;6191945;28;20418;-73
2022/05/19 00:12:32;;;;;;;1.67;1.42;;;;;;;20.05;88.75;101659.97;6193226;28;20521;-74
2022/05/19 00:15:34;;;;;;;3.65;1.67;;;;;;;20.01;88.81;101651.34;6189116;28;20046;-73
2022/05/19 00:18:36;;;;;;;4.80;1.58;;;;;;;20.00;88.06;101657.66;6201545;28;20058;-73
2022/05/19 00:21:38;;;;;;;4.10;1.85;;;;;;;19.98;88.27;101654.28;6201337;28;20495;-73
2022/05/19 00:24:39;;;;;;;2.15;1.60;;;;;;;19.99;88.13;101647.13;6200988;28;20419;-74
2022/05/19 00:27:42;;;;;;;4.28;1.50;;;;;;;19.97;88.64;101657.03;6201276;28;20050;-74
2022/05/19 00:30:44;;;;;;;4.63;1.67;;;;;;;19.96;88.62;101655.34;6193475;28;20050;-73
2022/05/19 00:33:45;;;;;;;2.50;1.83;;;;;;;19.93;88.35;101659.09;6195741;28;20061;-73
2022/05/19 00:36:46;;;;;;;1.80;1.42;;;;;;;19.93;88.28;101661.75;6201160;28;20053;-73
2022/05/19 00:39:48;;;;;;;2.63;1.40;;;;;;;19.92;88.01;101665.41;6200823;28;20460;-74
2022/05/19 00:42:51;;;;;;;2.15;1.48;;;;;;;19.91;87.58;101663.72;6201140;28;20050;-73
2022/05/19 00:45:59;;;;;;;1.27;1.17;;;;;;;19.91;87.51;101661.06;6199552;28;20446;-73
2022/05/19 00:49:06;;;;;;;2.58;1.65;;;;;;;19.92;87.32;101659.22;6176800;28;20050;-74
2022/05/19 00:52:12;;;;;;;2.70;1.50;;;;;;;19.95;86.90;101662.50;6176578;28;20062;-73
2022/05/19 00:55:18;;;;;;;5.60;2.03;;;;;;;19.94;87.03;101659.94;6188829;28;20058;-73
2022/05/19 00:58:26;;;;;;;1.70;1.48;;;;;;;19.92;87.21;101659.22;6200662;28;20068;-73
2022/05/19 01:01:28;;;;;;;2.78;1.50;;;;;;;19.91;87.38;101657.53;6200489;28;20050;-73
2022/05/19 01:04:36;;;;;;;1.98;1.30;;;;;;;19.84;87.83;101654.47;6200129;28;20054;-73
2022/05/19 01:07:48;;;;;;;2.85;1.70;;;;;;;19.79;88.44;101655.81;6200443;28;20054;-73
2022/05/19 01:10:51;;;;;;;1.75;1.58;;;;;;;19.76;88.79;101659.59;6200182;28;20243;-73
2022/05/19 01:13:54;;;;;;;1.98;1.70;;;;;;;19.73;88.85;101663.34;6199904;28;20046;-73
2022/05/19 01:16:55;;;;;;;3.53;1.60;;;;;;;19.66;90.06;101659.44;6195432;28;20487;-73
2022/05/19 01:20:00;;;;;;;1.60;1.23;;;;;;;19.62;89.83;101658.00;6175743;28;20051;-73
2022/05/19 01:23:08;;;;;;;3.63;1.55;;;;;;;19.58;90.12;101655.66;6176132;28;20137;-74
2022/05/19 01:26:17;;;;;;;2.17;1.60;;;;;;;19.57;89.61;101653.91;6175714;28;20043;-73
2022/05/19 01:29:26;;;;;;;2.47;1.58;;;;;;;19.52;89.40;101652.44;6176047;28;20058;-73
2022/05/19 01:32:30;;;;;;;2.47;1.70;;;;;;;19.52;89.27;101652.44;6175666;28;20047;-73
2022/05/19 01:35:33;;;;;;;2.33;1.45;;;;;;;19.52;88.77;101651.59;6175505;28;20426;-73
2022/05/19 01:38:34;;;;;;;2.17;1.33;;;;;;;19.51;89.36;101641.91;6175793;28;20058;-73
2022/05/19 01:41:47;;;;;;;3.28;1.60;;;;;;;19.47;90.90;101651.13;6175485;28;20152;-73
2022/05/19 01:44:57;;;;;;;2.47;1.90;;;;;;;19.41;92.03;101652.44;6175276;28;20051;-73
2022/05/19 01:48:04;;;;;;;2.17;1.45;;;;;;;19.37;92.54;101650.13;6176226;28;20046;-74
2022/05/19 01:51:14;;;;;;;1.85;1.23;;;;;;;19.32;93.00;101645.13;6175560;28;20062;-73
2022/05/19 01:54:22;;;;;;;2.35;1.50;;;;;;;19.27;93.29;101639.31;6175340;28;20051;-73
2022/05/19 01:57:27;;;;;;;1.83;1.50;;;;;;;19.22;93.11;101646.81;6175212;28;20096;-73
2022/05/19 02:00:32;;;;;;;2.05;1.80;;;;;;;19.19;93.04;101637.22;6175470;28;20051;-73
2022/05/19 02:03:41;;;;;;;4.63;1.35;;;;;;;19.17;93.48;101638.31;6175201;28;20059;-74
2022/05/19 02:06:47;;;;;;;3.80;1.70;;;;;;;19.14;93.94;101636.72;6180502;28;20414;-73
2022/05/19 02:09:55;;;;;;;5.10;1.55;;;;;;;19.10;95.88;101634.41;6188601;28;20051;-73
2022/05/19 02:13:00;;;;;;;2.03;1.58;;;;;;;19.07;95.62;101626.63;6190522;28;20073;-73
2022/05/19 02:16:06;;;;;;;3.22;1.90;;;;;;;19.04;96.08;101630.38;6198187;28;20073;-73
2022/05/19 02:19:10;;;;;;;3.65;1.55;;;;;;;18.99;96.88;101621.91;6187557;28;20050;-73
2022/05/19 02:22:17;;;;;;;3.05;1.55;;;;;;;18.96;97.63;101614.97;6196157;28;20047;-73
2022/05/19 02:25:23;;;;;;;2.67;1.88;;;;;;;18.92;98.22;101613.50;6187362;28;20046;-72
2022/05/19 02:28:30;;;;;;;2.45;1.58;;;;;;;18.91;97.84;101616.28;6198528;28;20485;-74
2022/05/19 02:31:33;;;;;;;4.45;2.00;;;;;;;18.89;98.14;101615.53;6198597;28;20046;-73
2022/05/19 02:34:34;;;;;;;3.30;1.55;;;;;;;18.85;98.55;101612.28;6173922;28;20062;-73
2022/05/19 02:37:36;;;;;;;4.25;1.42;;;;;;;18.82;99.03;101607.16;6150338;29;20058;-73
2022/05/19 02:40:39;;;;;;;2.80;1.90;;;;;;;18.79;99.18;101607.38;6164075;28;20054;-74
2022/05/19 02:43:40;;;;;;;2.67;2.20;;;;;;;18.77;99.67;101613.81;6173271;28;20463;-73
2022/05/19 02:46:43;;;;;;;2.28;1.65;;;;;;;18.74;99.87;101605.06;6176923;28;20042;-73
2022/05/19 02:49:44;;;;;;;2.00;1.35;;;;;;;18.71;100.00;101613.28;6174846;28;20519;-73
2022/05/19 02:52:46;;;;;;;1.77;1.40;;;;;;;18.68;100.00;101600.16;6173983;28;20054;-73
2022/05/19 02:55:48;;;;;;;2.72;1.85;;;;;;;18.68;100.00;101604.66;6173797;28;20054;-73
2022/05/19 02:58:49;;;;;;;2.78;1.80;;;;;;;18.64;100.00;101601.34;6174053;28;20051;-73
2022/05/19 03:01:52;;;;;;;3.92;1.63;;;;;;;18.62;100.00;101602.41;6173599;28;20446;-74
2022/05/19 03:04:53;;;;;;;2.35;1.88;;;;;;;18.60;100.00;101601.69;6173753;28;20051;-73
2022/05/19 03:07:55;;;;;;;3.92;1.85;;;;;;;18.57;100.00;101602.75;6173637;28;20066;-73
2022/05/19 03:10:56;;;;;;;2.97;2.00;;;;;;;18.54;100.00;101600.34;6173629;28;20073;-73
2022/05/19 03:13:57;;;;;;;2.35;1.55;;;;;;;18.54;100.00;101610.13;6173521;28;20058;-73
2022/05/19 03:17:00;;;;;;;2.40;1.70;;;;;;;18.50;100.00;101599.69;6174815;28;20047;-73
2022/05/19 03:20:02;;;;;;;1.70;1.35;;;;;;;18.50;100.00;101609.50;6173506;28;20082;-73
2022/05/19 03:23:04;;;;;;;3.35;1.60;;;;;;;18.47;100.00;101605.25;6173774;28;20055;-73
2022/05/19 03:26:05;;;;;;;2.47;1.65;;;;;;;18.46;100.00;101611.53;6173524;28;20495;-73
2022/05/19 03:29:07;;;;;;;4.15;2.00;;;;;;;18.46;100.00;101611.53;6173546;28;20058;-73
2022/05/19 03:32:09;;;;;;;2.05;1.50;;;;;;;18.44;100.00;101610.81;6173610;28;20054;-73
2022/05/19 03:35:12;;;;;;;2.60;2.00;;;;;;;18.42;100.00;101610.06;6177938;28;20047;-73
2022/05/19 03:38:13;;;;;;;2.53;1.75;;;;;;;18.41;100.00;101604.84;6178654;28;20083;-73
2022/05/19 03:41:15;;;;;;;3.38;1.70;;;;;;;18.37;100.00;101600.72;6178368;28;20050;-73
2022/05/19 03:44:16;;;;;;;3.78;1.98;;;;;;;18.36;100.00;101607.00;6179173;28;20527;-74
2022/05/19 03:47:19;;;;;;;3.08;2.00;;;;;;;18.33;100.00;101602.72;6177976;28;20054;-73
2022/05/19 03:50:20;;;;;;;1.52;1.40;;;;;;;18.35;100.00;101605.28;6177814;28;20050;-73
2022/05/19 03:53:21;;;;;;;2.10;1.90;;;;;;;18.35;100.00;101610.59;6177769;28;20050;-73
2022/05/19 03:56:24;;;;;;;3.50;2.25;;;;;;;18.33;100.00;101599.22;6178116;28;20054;-74
2022/05/19 03:59:25;;;;;;;3.90;2.65;;;;;;;18.33;100.00;101602.72;6177837;28;20422;-74
2022/05/19 04:02:28;;;;;;;3.70;2.22;;;;;;;18.33;100.00;101599.22;6182968;28;20046;-73
2022/05/19 04:05:29;;;;;;;3.00;2.33;;;;;;;18.32;100.00;101598.38;6181373;28;20054;-73
2022/05/19 04:08:31;;;;;;;2.85;1.90;;;;;;;18.33;100.00;101600.06;6190925;28;20038;-73
2022/05/19 04:11:33;;;;;;;4.13;1.88;;;;;;;18.34;100.00;101604.44;6198535;28;20418;-73
2022/05/19 04:14:34;;;;;;;2.97;2.08;;;;;;;18.34;100.00;101595.59;6201601;28;20061;-73
2022/05/19 04:17:37;;;;;;;2.97;1.77;;;;;;;18.34;100.00;101604.44;6201720;28;20046;-73
2022/05/19 04:20:39;;;;;;;2.92;1.85;;;;;;;18.36;100.00;101607.00;6201454;28;20051;-73
2022/05/19 04:23:40;;;;;;;6.28;2.92;;;;;;;18.37;100.00;101611.34;6195010;28;20469;-72
2022/05/19 04:26:41;;;;;;;2.83;1.70;;;;;;;18.38;100.00;101618.38;6193713;28;20498;-73
2022/05/19 04:29:43;;;;;;;3.45;2.03;;;;;;;18.40;100.00;101616.47;6201488;28;20065;-73
2022/05/19 04:32:46;;;;;;;2.63;1.90;;;;;;;18.41;100.00;101619.00;6201088;28;20574;-73
2022/05/19 04:35:48;;;;;;;4.57;2.15;;;;;;;18.44;100.00;101612.59;6201012;28;20057;-73
2022/05/19 04:38:49;;;;;;;5.13;2.08;;;;;;;18.44;100.00;101616.13;6201109;28;20498;-74
2022/05/19 04:41:50;;;;;;;2.65;2.10;;;;;;;18.47;100.00;101613.22;6177731;28;20057;-73
2022/05/19 04:44:54;;;;;;;3.90;2.45;;;;;;;18.51;100.00;101614.69;6176223;28;20491;-74
2022/05/19 04:47:56;;;;;;;8.32;2.10;;;;;;;18.54;100.00;101616.31;6176141;28;20051;-73
2022/05/19 04:50:59;;;;;;;4.13;1.75;;;;;;;18.56;100.00;101616.19;6187027;28;20058;-73
2022/05/19 04:54:01;;;;;;;3.05;2.20;;;;;;;18.59;100.00;101616.81;6200574;28;20050;-74
2022/05/19 04:57:02;;;;;;;3.15;1.77;;;;;;;18.63;100.00;101610.31;6201048;28;20046;-73
2022/05/19 05:00:06;;;;;;;3.95;1.95;;;;;;;18.67;100.00;101621.59;6193795;28;20077;-73
2022/05/19 05:03:09;;;;;;;4.28;2.65;;;;;;;18.77;100.00;101627.13;6175996;28;20399;-73
2022/05/19 05:06:11;;;;;;;2.95;1.73;;;;;;;18.85;100.00;101628.25;6176578;28;20057;-73
2022/05/19 05:09:12;;;;;;;3.38;2.15;;;;;;;18.96;97.80;101624.78;6177245;28;20562;-73
2022/05/19 05:12:13;;;;;;;2.28;1.73;;;;;;;19.05;97.05;101626.75;6176192;28;20133;-73
2022/05/19 05:15:15;;;;;;;2.20;1.77;;;;;;;19.17;94.69;101633.84;6175922;28;20046;-73
2022/05/19 05:18:18;;;;;;;3.80;1.42;;;;;;;19.25;94.07;101633.22;6175055;28;20047;-72
2022/05/19 05:21:19;;;;;;;2.90;1.95;;;;;;;19.31;94.00;101642.59;6184492;28;20043;-73
2022/05/19 05:24:20;;;;;;;2.50;1.80;;;;;;;19.35;93.54;101647.59;6189442;28;20053;-73
2022/05/19 05:27:22;;;;;;;4.82;1.63;;;;;;;19.41;93.54;101643.59;6198549;28;20053;-73
2022/05/19 05:30:24;;;;;;;3.45;1.98;;;;;;;19.46;92.81;101649.41;6177935;28;20054;-73
2022/05/19 05:33:27;;;;;;;3.35;1.90;;;;;;;19.49;93.15;101650.03;6176008;28;20050;-73
2022/05/19 05:36:28;;;;;;;2.65;1.50;;;;;;;19.55;93.37;101656.72;6183531;28;20054;-73
2022/05/19 05:39:30;;;;;;;1.73;1.50;;;;;;;19.55;93.91;101655.88;6199946;28;20053;-73
2022/05/19 05:42:31;;;;;;;2.50;1.95;;;;;;;19.58;93.28;101656.50;6199663;28;20494;-73
2022/05/19 05:45:32;;;;;;;4.55;2.08;;;;;;;19.65;91.06;101660.41;6191665;28;20042;-73
2022/05/19 05:48:36;;;;;;;2.08;1.58;;;;;;;19.79;89.84;101659.34;6171472;28;20054;-75
2022/05/19 05:51:38;;;;;;;4.80;2.75;;;;;;;19.83;89.72;101660.78;6179413;28;20050;-77
2022/05/19 05:54:39;;;;;;;2.78;2.20;;;;;;;19.83;91.23;101658.13;6174023;28;20148;-73
2022/05/19 05:57:40;;;;;;;2.20;1.85;;;;;;;19.87;91.12;101661.41;6170095;28;20122;-73
2022/05/19 06:00:42;;;;;;;2.97;1.38;;;;;;;19.91;88.10;101655.72;6186923;28;20490;-74
2022/05/19 06:03:47;;;;;;;3.65;1.98;;;;;;;20.07;85.54;101651.81;6165534;28;20434;-74
2022/05/19 06:06:48;;;;;;;2.47;1.42;;;;;;;20.13;86.59;101664.72;6177235;28;20047;-73
2022/05/19 06:09:50;;;;;;;1.80;1.55;;;;;;;20.20;85.20;101658.75;6170795;28;20039;-73
2022/05/19 06:12:53;;;;;;;4.78;1.92;;;;;;;20.30;83.40;101653.50;6161463;28;20057;-73
2022/05/19 06:15:55;;;;;;;2.67;1.55;;;;;;;20.39;83.77;101657.28;6169414;28;20137;-73
2022/05/19 06:18:57;;;;;;;3.15;1.35;;;;;;;20.46;82.30;101659.34;6171803;28;20042;-73
2022/05/19 06:21:59;;;;;;;1.75;1.52;;;;;;;20.67;76.86;101661.28;6194578;28;20054;-73
2022/05/19 06:25:00;;;;;;;3.05;1.80;;;;;;;20.85;74.25;101657.09;6183188;28;20426;-73
2022/05/19 06:28:01;;;;;;;6.93;1.42;;;;;;;20.95;74.01;101646.50;6179226;28;20046;-73
2022/05/19 06:31:04;;;;;;;1.70;1.45;;;;;;;21.03;73.81;101658.25;6174424;28;20490;-73
2022/05/19 06:34:07;;;;;;;2.20;1.65;;;;;;;21.06;73.78;101646.44;6176455;28;20426;-77
2022/05/19 06:37:08;;;;;;;1.40;1.30;;;;;;;21.09;71.92;101638.19;6174552;28;20058;-76
2022/05/19 06:40:10;;;;;;;2.78;1.38;;;;;;;21.14;71.01;101635.97;6172593;28;20054;-77
2022/05/19 06:43:14;;;;;;;1.50;1.23;;;;;;;21.12;69.15;101632.59;6171250;28;20066;-78
2022/05/19 06:46:16;;;;;;;4.80;2.65;;;;;;;21.13;68.18;101626.25;6173916;28;20520;-75
2022/05/19 06:49:18;;;;;;;1.35;1.25;;;;;;;21.25;67.55;101627.88;6174102;28;20053;-75
2022/05/19 06:52:22;;;;;;;2.47;1.05;;;;;;;21.30;67.17;101616.78;6171984;28;20066;-74
2022/05/19 06:55:25;;;;;;;1.63;1.40;;;;;;;21.34;66.44;101617.44;6160060;28;20048;-74
2022/05/19 06:58:26;;;;;;;2.75;1.40;;;;;;;21.43;65.15;101624.66;6180243;28;20074;-74
2022/05/19 07:01:27;;;;;;;1.85;1.52;;;;;;;21.41;65.47;101618.59;6179143;28;20047;-74
2022/05/19 07:04:31;;;;;;;2.72;1.27;;;;;;;21.35;67.24;101617.31;6166941;28;20050;-74
2022/05/19 07:07:32;;;;;;;1.38;1.23;;;;;;;21.34;65.75;101612.91;6169110;28;20050;-74
2022/05/19 07:10:34;;;;;;;1.92;1.38;;;;;;;21.31;66.38;101612.31;6158650;28;20054;-74
2022/05/19 07:13:35;;;;;;;1.45;1.15;;;;;;;21.36;65.82;101602.97;6163936;28;20082;-74
2022/05/19 07:16:38;;;;;;;1.80;1.35;;;;;;;21.34;66.65;101610.25;6162454;28;20415;-74
2022/05/19 07:23:00;;;;;;;4.00;1.25;;;;;;;21.47;63.00;101618.06;6163080;28;20086;-74
2022/05/19 07:26:01;;;;;;;1.67;1.27;;;;;;;21.52;63.78;101621.19;6169982;28;20053;-74
2022/05/19 07:29:03;;;;;;;1.33;1.17;;;;;;;21.48;63.19;101617.97;6184094;28;20050;-74
2022/05/19 07:32:06;;;;;;;1.35;1.10;;;;;;;21.55;63.50;101617.44;6185821;28;20054;-74
2022/05/19 07:35:11;;;;;;;1.67;1.35;;;;;;;21.67;63.85;101611.03;6191795;28;20066;-74
2022/05/19 07:38:14;;;;;;;1.65;1.05;;;;;;;21.72;61.80;101614.16;6189504;28;20055;-74
2022/05/19 07:41:15;;;;;;;1.67;1.38;;;;;;;21.82;62.13;101611.53;6197611;28;20403;-74
2022/05/19 07:44:17;;;;;;;4.30;1.42;;;;;;;21.88;59.92;101600.25;6197451;28;20057;-74
2022/05/19 07:47:19;;;;;;;1.42;1.10;;;;;;;22.04;60.18;101612.19;6197380;28;20046;-74
2022/05/19 07:50:22;;;;;;;6.60;1.30;;;;;;;22.22;59.89;101609.72;6197280;28;20526;-74
2022/05/19 07:53:23;;;;;;;1.52;1.10;;;;;;;22.27;58.74;101603.97;6197321;28;20050;-74
2022/05/19 07:56:24;;;;;;;2.85;1.60;;;;;;;22.28;59.29;101597.63;6197081;28;20050;-74
2022/05/19 07:59:26;;;;;;;1.33;1.10;;;;;;;22.46;57.09;101593.28;6174247;28;20051;-73
2022/05/19 08:02:28;;;;;;;3.08;1.27;;;;;;;22.61;55.32;101598.25;6176365;28;20062;-74
2022/05/19 08:05:30;;;;;;;2.40;1.30;;;;;;;22.75;55.84;101587.09;6181306;28;20054;-75
2022/05/19 08:08:32;;;;;;;2.78;1.00;;;;;;;22.81;53.91;101597.28;6181098;28;20050;-74
2022/05/19 08:11:33;;;;;;;3.30;1.10;;;;;;;22.94;54.08;101600.56;6182909;28;20054;-73
2022/05/19 08:17:54;;;;;;;1.58;1.08;;;;;;;22.89;54.40;101600.16;6188540;28;20074;-74
2022/05/19 08:20:59;;;;;;;3.58;1.30;;;;;;;22.90;55.91;101593.78;6182093;28;20051;-74
2022/05/19 08:24:00;;;;;;;3.60;1.38;;;;;;;22.91;55.19;101591.94;6190486;28;20477;-74
2022/05/19 08:27:02;;;;;;;4.13;1.35;;;;;;;22.96;56.32;101590.53;6195119;28;20473;-74
2022/05/19 08:30:03;;;;;;;1.55;1.08;;;;;;;23.14;54.21;101590.66;6180716;28;20069;-74
2022/05/19 08:33:06;;;;;;;2.17;0.98;;;;;;;23.41;52.92;101592.59;6165052;28;20046;-74
2022/05/19 08:36:10;;;;;;;1.77;1.20;;;;;;;23.49;51.13;101587.34;6181466;28;20054;-75
2022/05/19 08:39:11;;;;;;;1.63;1.25;;;;;;;23.65;50.52;101573.34;6181146;28;20051;-74
2022/05/19 08:42:15;;;;;;;4.03;1.00;;;;;;;23.76;50.90;101570.50;6184203;28;20042;-75
2022/05/19 08:45:22;;;;;;;1.40;1.10;;;;;;;23.77;52.25;101574.84;6195446;28;20053;-74
2022/05/19 08:48:27;;;;;;;1.00;0.90;;;;;;;23.83;53.87;101586.84;6177881;28;20426;-74
2022/05/19 08:51:34;;;;;;;1.48;1.00;;;;;;;24.00;53.33;101578.00;6176494;28;20153;-74
2022/05/19 08:54:38;;;;;;;2.08;1.05;;;;;;;24.14;49.29;101584.72;6182282;28;20058;-74
2022/05/19 08:57:43;;;;;;;4.93;1.05;;;;;;;24.13;49.55;101585.72;6184575;28;20057;-74
2022/05/19 09:00:48;;;;;;;0.80;0.77;;;;;;;24.08;48.91;101584.47;6181252;28;20050;-74
2022/05/19 09:04:02;;;;;;;1.27;1.08;;;;;;;24.09;48.21;101578.09;6175466;28;20062;-74
2022/05/19 09:10:45;;;;;;;1.17;0.98;;;;;;;24.20;48.39;101588.63;6179873;28;20531;-75
2022/05/19 09:13:53;;;;;;;4.65;1.00;;;;;;;24.26;47.46;101588.06;6177021;28;20051;-73
2022/05/19 09:17:00;;;;;;;1.27;1.17;;;;;;;24.15;48.54;101574.81;6176020;28;20053;-74
2022/05/19 09:20:08;;;;;;;1.17;0.95;;;;;;;24.18;49.72;101561.09;6160333;28;20046;-74
2022/05/19 09:23:11;;;;;;;1.23;1.05;;;;;;;24.17;48.54;101573.69;6184186;28;20057;-75
2022/05/19 09:26:31;;;;;;;19.38;10.18;;;;;;;24.21;48.86;101571.50;6168753;28;20055;-74
2022/05/19 09:29:35;;;;;;;3.45;1.40;;;;;;;24.42;47.91;101566.75;6154688;28;20051;-75
2022/05/19 09:32:44;;;;;;;1.23;0.90;;;;;;;24.51;46.45;101565.00;6175055;28;20062;-75
2022/05/19 09:35:50;;;;;;;1.40;1.27;;;;;;;24.57;45.74;101568.91;6157405;28;20415;-75
2022/05/19 09:39:01;;;;;;;3.65;1.08;;;;;;;24.67;45.08;101564.31;6151709;29;20067;-74
2022/05/19 09:42:08;;;;;;;1.55;1.00;;;;;;;24.64;46.86;101559.25;6150550;29;20055;-75
2022/05/19 09:45:10;;;;;;;1.30;1.20;;;;;;;24.56;46.38;101557.31;6151200;29;20058;-75
2022/05/19 09:48:11;;;;;;;1.40;1.10;;;;;;;24.61;45.35;101554.16;6151504;29;20499;-75
2022/05/19 09:51:15;;;;;;;2.05;1.42;;;;;;;24.67;46.65;101548.19;6181337;28;20054;-75
2022/05/19 09:54:18;;;;;;;1.30;1.08;;;;;;;24.77;44.87;101548.94;6199279;28;20061;-75
2022/05/19 09:57:26;;;;;;;2.03;1.00;;;;;;;24.73;45.86;101540.34;6199249;28;20424;-74
2022/05/19 10:00:38;;;;;;;2.10;1.10;;;;;;;24.70;45.76;101539.78;6199398;28;20046;-75
2022/05/19 10:03:43;;;;;;;1.15;1.02;;;;;;;24.93;45.79;101542.84;6199094;28;20050;-74
2022/05/19 10:06:54;;;;;;;1.10;0.85;;;;;;;24.98;44.73;101545.91;6199288;28;20055;-75
2022/05/19 10:09:58;;;;;;;1.35;1.15;;;;;;;25.06;42.88;101540.59;6198825;28;20096;-74
2022/05/19 10:13:04;;;;;;;2.85;1.20;;;;;;;25.04;43.92;101524.63;6198963;28;20081;-74
2022/05/19 10:16:14;;;;;;;4.70;1.40;;;;;;;25.03;43.82;101504.13;6198898;28;20065;-73
2022/05/19 10:19:33;;;;;;;1.55;1.33;;;;;;;25.13;45.04;101506.72;6197328;28;20426;-74
2022/05/19 10:23:03;;;;;;;1.35;0.88;;;;;;;25.26;43.95;101504.47;6198626;28;20465;-74
2022/05/19 10:26:23;;;;;;;3.05;0.73;;;;;;;25.43;44.05;101488.38;6198696;28;20057;-74
2022/05/19 10:33:01;;;;;;;3.22;1.10;;;;;;;25.66;44.79;101488.66;6182810;28;20054;-74
2022/05/19 10:36:14;;;;;;;1.27;1.17;;;;;;;25.90;44.64;101488.78;6198449;28;20046;-74
2022/05/19 10:39:27;;;;;;;2.58;1.02;;;;;;;26.05;44.71;101487.13;6190572;28;20043;-74
2022/05/19 10:42:41;;;;;;;1.25;0.90;;;;;;;26.31;42.33;101475.41;6175939;28;20054;-74
2022/05/19 10:45:47;;;;;;;0.88;0.80;;;;;;;26.52;41.80;101475.75;6172175;28;20454;-73
2022/05/19 10:49:01;;;;;;;2.10;1.23;;;;;;;26.73;40.96;101471.72;6175489;28;20062;-74
2022/05/19 10:52:15;;;;;;;1.55;1.20;;;;;;;26.78;40.37;101461.25;6174306;28;20053;-74
2022/05/19 10:55:22;;;;;;;1.63;0.80;;;;;;;26.71;41.42;101461.13;6173148;28;20057;-73
2022/05/19 10:58:42;;;;;;;0.77;0.77;;;;;;;26.68;40.93;101453.34;6173880;28;20050;-74
2022/05/19 11:01:59;;;;;;;1.75;1.08;;;;;;;26.73;39.25;101447.44;6173487;28;20141;-74
2022/05/19 11:05:12;;;;;;;0.98;0.73;;;;;;;26.90;39.04;101442.88;6174179;28;20588;-74
2022/05/19 11:08:25;;;;;;;1.65;1.20;;;;;;;26.71;41.51;101434.16;6171890;28;20062;-74
2022/05/19 11:11:45;;;;;;;1.08;0.85;;;;;;;26.52;41.53;101431.78;6168871;28;20055;-74
2022/05/19 11:14:57;;;;;;;1.23;0.90;;;;;;;26.69;43.16;101427.22;6176250;28;20054;-73
2022/05/19 11:18:07;;;;;;;2.92;0.90;;;;;;;26.99;41.78;101431.91;6185687;28;20054;-74
2022/05/19 11:21:14;;;;;;;1.20;1.10;;;;;;;27.23;40.05;101422.06;6176764;28;20058;-73
2022/05/19 11:24:22;;;;;;;7.20;1.27;;;;;;;27.08;41.83;101413.81;6180355;28;20058;-73
2022/05/19 11:27:26;;;;;;;1.20;0.90;;;;;;;27.08;39.65;101404.91;6173664;28;20517;-74
2022/05/19 11:30:34;;;;;;;0.70;0.70;;;;;;;27.48;38.82;101393.09;6173458;28;20513;-74
2022/05/19 11:33:40;;;;;;;2.63;0.93;;;;;;;27.89;39.25;101387.47;6173536;28;20050;-74
2022/05/19 11:36:46;;;;;;;1.60;1.02;;;;;;;28.36;38.14;101383.75;6173924;28;20051;-74
2022/05/19 11:40:00;;;;;;;0.80;0.75;;;;;;;28.79;39.50;101377.56;6173585;28;20053;-74
2022/05/19 11:43:08;;;;;;;0.93;0.82;;;;;;;29.14;38.21;101377.88;6173699;28;20507;-74
2022/05/19 11:46:15;;;;;;;2.90;1.20;;;;;;;29.44;37.65;101367.84;6173320;28;20102;-74
2022/05/19 11:56:09;;;;;;;0.70;0.68;;;;;;;30.26;34.71;101367.44;6168577;28;20074;-72
2022/05/19 11:59:11;;;;;;;0.60;0.60;;;;;;;30.56;33.14;101365.38;6187171;28;20046;-75
2022/05/19 12:02:17;;;;;;;0.90;0.80;;;;;;;30.67;32.41;101357.72;6177808;28;20075;-73
2022/05/19 12:05:25;;;;;;;1.40;1.05;;;;;;;30.94;31.39;101366.91;6176968;28;20066;-73
2022/05/19 12:08:31;;;;;;;1.48;1.10;;;;;;;30.93;32.65;101365.19;6189336;28;20513;-73
2022/05/19 12:11:52;;;;;;;0.98;0.73;;;;;;;31.15;31.31;101374.06;6193349;28;20043;-74
2022/05/19 12:15:14;;;;;;;1.17;0.90;;;;;;;31.00;31.84;101366.09;6177015;28;20491;-73
2022/05/19 12:18:36;;;;;;;1.13;0.88;;;;;;;31.12;32.81;101358.22;6177691;28;20546;-73
2022/05/19 12:21:51;;;;;;;0.82;0.80;;;;;;;31.40;31.74;101344.56;6183212;28;20065;-74
2022/05/19 12:24:55;;;;;;;0.73;0.70;;;;;;;31.33;31.58;101358.94;6177408;28;20145;-75
2022/05/19 12:28:21;;;;;;;0.73;0.70;;;;;;;31.35;31.69;101357.91;6174039;28;20514;-75
2022/05/19 12:34:57;;;;;;;0.70;0.70;;;;;;;31.79;31.37;101355.47;6185402;28;20059;-75
2022/05/19 12:38:03;;;;;;;1.02;0.80;;;;;;;32.07;31.26;101349.09;6182330;28;20108;-75
2022/05/19 12:41:07;;;;;;;3.53;0.80;;;;;;;32.21;32.12;101339.03;6175668;28;20039;-75
2022/05/19 12:44:28;;;;;;;0.80;0.80;;;;;;;32.20;31.02;101340.06;6186941;28;20047;-76
2022/05/19 12:47:32;;;;;;;1.27;0.80;;;;;;;32.27;30.80;101336.31;6179205;28;20057;-75
2022/05/19 12:50:49;;;;;;;1.23;0.98;;;;;;;32.30;30.84;101332.34;6188839;28;20482;-75
2022/05/19 12:54:08;;;;;;;0.85;0.80;;;;;;;32.45;31.36;101329.41;6167556;28;20162;-75
2022/05/19 12:57:27;;;;;;;0.70;0.70;;;;;;;32.64;31.68;101336.69;6169696;28;20584;-75
2022/05/19 13:00:35;;;;;;;1.08;0.88;;;;;;;32.37;31.05;101333.19;6177753;28;20046;-75
2022/05/19 13:03:41;;;;;;;0.80;0.80;;;;;;;32.50;32.16;101332.31;6192625;28;20042;-75
2022/05/19 13:06:50;;;;;;;2.67;0.70;;;;;;;32.43;30.42;101323.31;6180225;28;20059;-75
2022/05/19 13:09:57;;;;;;;3.35;1.23;;;;;;;32.39;30.89;101320.22;6174752;28;20050;-74
2022/05/19 13:13:05;;;;;;;0.77;0.77;;;;;;;32.59;31.12;101312.00;6173856;28;20051;-75
2022/05/19 13:16:13;;;;;;;3.85;1.00;;;;;;;32.84;31.16;101301.25;6174052;28;20058;-75
2022/05/19 13:19:21;;;;;;;1.90;0.98;;;;;;;32.79;30.41;101292.88;6171672;28;20081;-76
2022/05/19 13:22:25;;;;;;;3.10;1.33;;;;;;;32.83;29.46;101289.50;6172964;28;20049;-76
2022/05/19 13:25:28;;;;;;;1.20;1.00;;;;;;;32.22;30.22;101278.97;6169249;28;20055;-76
2022/05/19 13:31:51;;;;;;;1.95;0.90;;;;;;;31.93;32.04;101271.25;6169206;28;20116;-76
2022/05/19 13:34:55;;;;;;;1.20;0.80;;;;;;;31.79;33.95;101267.66;6166440;28;20050;-77
2022/05/19 13:37:57;;;;;;;2.30;0.93;;;;;;;31.72;34.18;101270.41;6163869;28;20431;-75
2022/05/19 13:40:59;;;;;;;1.00;0.90;;;;;;;31.63;32.10;101262.66;6168687;28;20051;-76
2022/05/19 13:44:01;;;;;;;1.05;1.00;;;;;;;31.65;31.58;101274.97;6164197;28;20051;-76
2022/05/19 13:47:06;;;;;;;2.17;1.10;;;;;;;31.75;32.97;101269.13;6163845;28;20663;-76
2022/05/19 13:50:16;;;;;;;1.85;1.13;;;;;;;31.74;32.92;101268.28;6170883;28;20054;-76
2022/05/19 13:53:20;;;;;;;1.23;1.10;;;;;;;31.87;31.58;101264.78;6159209;28;20051;-76
2022/05/19 13:56:25;;;;;;;3.85;0.90;;;;;;;31.97;33.53;101269.78;6163500;28;20047;-75
2022/05/19 13:59:30;;;;;;;0.98;0.77;;;;;;;31.56;32.69;101268.06;6163665;28;20051;-76
2022/05/19 14:02:34;;;;;;;1.63;1.00;;;;;;;31.23;33.12;101266.09;6163420;28;20129;-76
2022/05/19 14:05:40;;;;;;;3.40;1.20;;;;;;;30.56;34.62;101270.41;6167196;28;20540;-76
2022/05/19 14:08:41;;;;;;;1.42;1.02;;;;;;;30.06;34.00;101266.94;6159837;28;20047;-76
2022/05/19 14:11:43;;;;;;;0.82;0.82;;;;;;;29.74;35.18;101260.22;6171716;28;20051;-76
2022/05/19 14:14:47;;;;;;;0.80;0.80;;;;;;;29.47;37.01;101253.69;6159295;28;20055;-76
2022/05/19 14:17:53;;;;;;;1.25;1.15;;;;;;;29.41;36.50;101251.75;6165616;28;20047;-75
2022/05/19 14:21:03;;;;;;;1.05;1.00;;;;;;;29.13;36.56;101251.66;6166548;28;20062;-76
2022/05/19 14:24:10;;;;;;;2.10;1.05;;;;;;;28.94;38.55;101253.09;6167279;28;20054;-76
2022/05/19 14:27:13;;;;;;;1.00;1.00;;;;;;;28.73;39.17;101251.16;6165365;28;20053;-76
2022/05/19 14:30:18;;;;;;;2.22;0.82;;;;;;;28.55;38.45;101266.94;6172113;28;20050;-75
2022/05/19 14:33:22;;;;;;;1.33;1.15;;;;;;;28.50;38.37;101272.91;6171108;28;20047;-76
2022/05/19 14:36:28;;;;;;;1.48;1.00;;;;;;;28.60;38.05;101266.38;6165560;28;20063;-76
2022/05/19 14:39:32;;;;;;;1.25;1.15;;;;;;;28.57;38.96;101267.59;6166229;28;20490;-76
2022/05/19 14:45:55;;;;;;;1.25;1.00;;;;;;;28.41;39.17;101262.38;6171596;28;20046;-76
2022/05/19 14:49:02;;;;;;;0.88;0.88;;;;;;;28.35;40.87;101271.25;6177833;28;20050;-76